Terminal Aerodrome Forecast
Issued by NWS

Home | Current Version | Previous Version | Text Only | Print | Product List | Glossary On
Versions: 1 2 3 4 5 6 7 8 9 10 11 12 13 14 15 16 17 18 19 20 21
000
FTUS41 KPHI 232300
TAFPNE
TAF
KPNE 232329Z 2400/2424 VRB03KT P6SM SCT250
     FM241200 08010KT P6SM OVC200
     FM241700 07010G19KT P6SM SCT035 OVC150
      TEMPO 2417/2419 BKN035=

USA.gov is the U.S. government's official web portal to all federal, state and local government web resources and services.